Time;durP1;ratioP1;P1;durP2;ratioP2;P2;SDS_P1;SDS_P2;PMS_P1;PMS_P2;Temp;Humidity;BMP_temperature;BMP_pressure;BME280_temperature;BME280_humidity;BME280_pressure;Samples;Min_cycle;Max_cycle;Signal;HPM_P1;HPM_P2
2022/03/25 00:00:12;;;;;;;81.75;46.90;;;;;;;;;;5093255;28;20038;-61
2022/03/25 00:02:39;;;;;;;78.97;46.00;;;;;;;;;;5092258;28;20055;-61
2022/03/25 00:05:05;;;;;;;77.75;45.58;;;;;;;;;;5091929;28;20047;-61
2022/03/25 00:07:32;;;;;;;79.55;47.00;;;;;;;;;;5091400;28;20047;-61
2022/03/25 00:09:58;;;;;;;92.70;47.90;;;;;;;;;;5092298;28;20437;-61
2022/03/25 00:12:26;;;;;;;82.35;47.97;;;;;;;;;;5092293;28;20044;-61
2022/03/25 00:14:52;;;;;;;79.57;47.53;;;;;;;;;;5091925;28;20071;-61
2022/03/25 00:17:18;;;;;;;76.22;44.78;;;;;;;;;;5091589;28;20040;-61
2022/03/25 00:19:44;;;;;;;81.40;45.17;;;;;;;;;;5092443;28;20036;-61
2022/03/25 00:22:10;;;;;;;77.88;44.88;;;;;;;;;;5092084;28;20093;-61
2022/03/25 00:24:36;;;;;;;78.43;47.40;;;;;;;;;;5092031;28;20043;-61
2022/03/25 00:27:02;;;;;;;78.75;46.13;;;;;;;;;;5090539;28;20074;-61
2022/03/25 00:29:28;;;;;;;80.07;45.58;;;;;;;;;;5092606;28;20044;-61
2022/03/25 00:31:54;;;;;;;74.85;44.92;;;;;;;;;;5091593;28;20036;-61
2022/03/25 00:34:20;;;;;;;74.47;44.25;;;;;;;;;;5091541;28;20044;-61
2022/03/25 00:36:46;;;;;;;78.95;47.08;;;;;;;;;;5092142;28;20064;-61
2022/03/25 00:39:12;;;;;;;79.13;46.13;;;;;;;;;;5091156;28;20477;-61
2022/03/25 00:41:38;;;;;;;77.45;44.53;;;;;;;;;;5092512;28;20061;-61
2022/03/25 00:44:06;;;;;;;73.97;42.50;;;;;;;;;;5091361;28;20032;-61
2022/03/25 00:46:33;;;;;;;77.47;43.75;;;;;;;;;;5090916;28;20134;-61
2022/03/25 00:48:59;;;;;;;71.50;43.00;;;;;;;;;;5092217;28;20035;-61
2022/03/25 00:51:25;;;;;;;69.00;42.22;;;;;;;;;;5089663;28;20513;-61
2022/03/25 00:53:51;;;;;;;65.50;39.40;;;;;;;;;;5092217;28;20554;-61
2022/03/25 00:56:17;;;;;;;65.15;38.88;;;;;;;;;;5090247;28;20154;-61
2022/03/25 00:58:43;;;;;;;61.60;39.05;;;;;;;;;;5088080;28;20076;-61
2022/03/25 01:01:09;;;;;;;63.28;38.40;;;;;;;;;;5089642;28;20059;-61
2022/03/25 01:03:35;;;;;;;57.30;37.00;;;;;;;;;;5092082;28;20129;-61
2022/03/25 01:06:01;;;;;;;57.38;35.35;;;;;;;;;;5090521;28;20063;-61
2022/03/25 01:08:29;;;;;;;57.65;36.55;;;;;;;;;;5091882;28;20048;-61
2022/03/25 01:10:55;;;;;;;59.97;36.72;;;;;;;;;;5089916;28;20117;-61
2022/03/25 01:13:21;;;;;;;64.95;38.83;;;;;;;;;;5090079;28;20050;-61
2022/03/25 01:15:47;;;;;;;63.67;39.00;;;;;;;;;;5090429;28;20032;-61
2022/03/25 01:18:14;;;;;;;62.17;39.58;;;;;;;;;;5090247;28;20498;-61
2022/03/25 01:20:41;;;;;;;64.00;39.22;;;;;;;;;;5091105;28;20063;-61
2022/03/25 01:23:09;;;;;;;69.05;42.38;;;;;;;;;;5091732;28;20047;-61
2022/03/25 01:25:36;;;;;;;65.32;39.72;;;;;;;;;;5090848;28;20084;-61
2022/03/25 01:28:02;;;;;;;64.55;38.13;;;;;;;;;;5091789;28;20096;-61
2022/03/25 01:30:28;;;;;;;70.57;40.13;;;;;;;;;;5090130;28;20043;-61
2022/03/25 01:32:55;;;;;;;65.63;39.67;;;;;;;;;;5091307;28;20036;-61
2022/03/25 01:35:24;;;;;;;57.50;37.03;;;;;;;;;;5090482;28;20073;-61
2022/03/25 01:37:50;;;;;;;58.10;38.13;;;;;;;;;;5091491;28;20044;-61
2022/03/25 01:40:16;;;;;;;58.08;37.15;;;;;;;;;;5091222;28;20035;-61
2022/03/25 01:42:42;;;;;;;64.38;37.50;;;;;;;;;;5090215;28;20028;-61
2022/03/25 01:45:12;;;;;;;61.17;37.03;;;;;;;;;;5091494;28;20036;-61
2022/03/25 01:47:38;;;;;;;52.95;34.13;;;;;;;;;;5089715;28;20582;-61
2022/03/25 01:50:05;;;;;;;50.35;34.30;;;;;;;;;;5091571;28;20040;-61
2022/03/25 01:52:31;;;;;;;54.10;34.60;;;;;;;;;;5089994;28;20028;-61
2022/03/25 01:55:13;;;;;;;51.47;34.92;;;;;;;;;;5090979;28;20032;-61
2022/03/25 01:57:39;;;;;;;;;;;;;;;;;;5090615;28;20170;-61
2022/03/25 02:00:06;;;;;;;48.55;31.15;;;;;;;;;;5090218;28;19999;-61
2022/03/25 02:02:32;;;;;;;45.88;29.90;;;;;;;;;;5087168;28;20032;-61
2022/03/25 02:04:59;;;;;;;47.08;30.25;;;;;;;;;;5090257;28;20031;-61
2022/03/25 02:07:26;;;;;;;46.03;30.52;;;;;;;;;;5089923;28;20056;-61
2022/03/25 02:09:52;;;;;;;50.08;32.22;;;;;;;;;;5090577;28;20083;-61
2022/03/25 02:12:18;;;;;;;50.15;31.13;;;;;;;;;;5088663;28;20047;-61
2022/03/25 02:14:44;;;;;;;41.83;28.90;;;;;;;;;;5090384;28;20115;-61
2022/03/25 02:17:10;;;;;;;78.38;29.50;;;;;;;;;;5088263;28;20071;-61
2022/03/25 02:19:36;;;;;;;41.20;28.77;;;;;;;;;;5090624;28;20116;-61
2022/03/25 02:22:02;;;;;;;51.75;28.83;;;;;;;;;;5089886;28;20040;-61
2022/03/25 02:24:28;;;;;;;38.67;26.85;;;;;;;;;;5090647;28;20063;-61
2022/03/25 02:26:55;;;;;;;45.78;29.75;;;;;;;;;;5088276;28;20959;-61
2022/03/25 02:29:21;;;;;;;47.17;30.42;;;;;;;;;;5090810;28;20486;-61
2022/03/25 02:31:47;;;;;;;47.63;31.58;;;;;;;;;;5088215;28;20047;-61
2022/03/25 02:34:13;;;;;;;72.05;31.02;;;;;;;;;;5089810;28;20036;-61
2022/03/25 02:36:39;;;;;;;85.78;29.35;;;;;;;;;;5089447;28;20069;-61
2022/03/25 02:39:06;;;;;;;76.75;29.17;;;;;;;;;;5089810;28;20079;-61
2022/03/25 02:41:32;;;;;;;69.07;27.00;;;;;;;;;;5090472;28;20063;-61
2022/03/25 02:43:59;;;;;;;48.70;27.42;;;;;;;;;;5089330;28;20035;-61
2022/03/25 02:46:25;;;;;;;40.72;28.00;;;;;;;;;;5090280;28;20071;-61
2022/03/25 02:48:51;;;;;;;36.70;25.52;;;;;;;;;;5089102;28;20107;-61
2022/03/25 02:51:17;;;;;;;40.35;27.17;;;;;;;;;;5090490;28;20114;-61
2022/03/25 02:53:43;;;;;;;42.67;30.05;;;;;;;;;;5088572;28;20122;-61
2022/03/25 02:56:09;;;;;;;52.97;33.20;;;;;;;;;;5090423;28;20044;-61
2022/03/25 02:58:35;;;;;;;38.65;26.88;;;;;;;;;;5089221;28;20052;-61
2022/03/25 03:01:01;;;;;;;41.60;28.77;;;;;;;;;;5089958;28;20079;-61
2022/03/25 03:03:27;;;;;;;42.70;27.52;;;;;;;;;;5087879;28;20524;-61
2022/03/25 03:05:53;;;;;;;51.15;30.77;;;;;;;;;;5089283;28;20032;-60
2022/03/25 03:08:19;;;;;;;59.92;27.75;;;;;;;;;;5088385;28;20162;-61
2022/03/25 03:10:46;;;;;;;80.30;26.45;;;;;;;;;;5090107;28;20060;-61
2022/03/25 03:13:13;;;;;;;52.50;23.60;;;;;;;;;;5089177;28;20036;-61
2022/03/25 03:15:39;;;;;;;75.07;24.15;;;;;;;;;;5093268;28;20044;-61
2022/03/25 03:18:06;;;;;;;57.10;22.95;;;;;;;;;;5092588;28;20039;-61
2022/03/25 03:20:32;;;;;;;40.35;21.40;;;;;;;;;;5093124;28;20086;-61
2022/03/25 03:22:58;;;;;;;28.02;21.20;;;;;;;;;;5093838;28;20118;-61
2022/03/25 03:25:28;;;;;;;29.42;21.75;;;;;;;;;;5091959;28;20093;-61
2022/03/25 03:27:54;;;;;;;25.15;20.27;;;;;;;;;;5094096;28;20397;-61
2022/03/25 03:30:20;;;;;;;24.13;18.90;;;;;;;;;;5092629;28;20504;-61
2022/03/25 03:32:46;;;;;;;26.27;20.48;;;;;;;;;;5094075;28;20031;-61
2022/03/25 03:35:14;;;;;;;27.20;22.20;;;;;;;;;;5092716;28;20048;-61
2022/03/25 03:37:44;;;;;;;29.90;22.92;;;;;;;;;;5094041;28;20405;-61
2022/03/25 03:40:11;;;;;;;26.55;20.88;;;;;;;;;;5091678;28;20389;-61
2022/03/25 03:42:37;;;;;;;29.98;21.25;;;;;;;;;;5092779;28;20035;-60
2022/03/25 03:45:04;;;;;;;48.58;20.25;;;;;;;;;;5092661;28;20032;-61
2022/03/25 03:47:30;;;;;;;34.45;20.15;;;;;;;;;;5092829;28;20032;-61
2022/03/25 03:49:56;;;;;;;23.90;19.27;;;;;;;;;;5090695;28;20093;-61
2022/03/25 03:52:23;;;;;;;28.52;20.92;;;;;;;;;;5092872;28;20036;-61
2022/03/25 03:54:49;;;;;;;35.75;21.67;;;;;;;;;;5091781;28;20051;-61
2022/03/25 03:57:16;;;;;;;51.45;26.17;;;;;;;;;;5091195;28;20036;-61
2022/03/25 03:59:42;;;;;;;133.18;24.42;;;;;;;;;;5093257;28;20051;-61
2022/03/25 04:02:08;;;;;;;77.22;21.88;;;;;;;;;;5092315;28;20558;-61
2022/03/25 04:04:34;;;;;;;30.92;22.50;;;;;;;;;;5092341;28;20040;-61
2022/03/25 04:07:00;;;;;;;28.90;22.92;;;;;;;;;;5093325;28;20111;-61
2022/03/25 04:09:27;;;;;;;49.47;32.80;;;;;;;;;;5091839;28;20525;-61
2022/03/25 04:11:53;;;;;;;45.20;30.63;;;;;;;;;;5091856;28;20181;-60
2022/03/25 04:14:19;;;;;;;43.88;29.35;;;;;;;;;;5092716;28;20040;-61
2022/03/25 04:16:46;;;;;;;29.50;22.90;;;;;;;;;;5092339;28;20448;-60
2022/03/25 04:19:12;;;;;;;38.00;27.58;;;;;;;;;;5092951;28;20098;-61
2022/03/25 04:21:39;;;;;;;65.38;28.77;;;;;;;;;;5091998;28;20044;-61
2022/03/25 04:24:05;;;;;;;71.50;30.20;;;;;;;;;;5092702;28;20058;-61
2022/03/25 04:26:31;;;;;;;43.15;30.38;;;;;;;;;;5089780;28;20048;-61
2022/03/25 04:28:57;;;;;;;40.63;29.80;;;;;;;;;;5092785;28;20122;-61
2022/03/25 04:31:23;;;;;;;49.67;27.98;;;;;;;;;;5091792;28;20119;-61
2022/03/25 04:33:49;;;;;;;34.42;25.38;;;;;;;;;;5092646;28;20070;-61
2022/03/25 04:36:15;;;;;;;37.28;25.50;;;;;;;;;;5091715;28;20514;-61
2022/03/25 04:38:42;;;;;;;37.00;26.65;;;;;;;;;;5092483;28;20097;-61
2022/03/25 04:41:10;;;;;;;34.42;25.42;;;;;;;;;;5090816;28;20119;-61
2022/03/25 04:43:38;;;;;;;41.50;27.50;;;;;;;;;;5092105;28;20032;-60
2022/03/25 04:46:05;;;;;;;42.33;25.92;;;;;;;;;;5091784;28;20456;-61
2022/03/25 04:48:31;;;;;;;99.38;24.63;;;;;;;;;;5092383;28;20043;-61
2022/03/25 04:50:57;;;;;;;114.13;24.30;;;;;;;;;;5091300;28;20036;-61
2022/03/25 04:53:25;;;;;;;200.20;24.38;;;;;;;;;;5092375;28;20514;-61
2022/03/25 04:55:51;;;;;;;221.07;23.80;;;;;;;;;;5090023;28;20093;-61
2022/03/25 04:58:17;;;;;;;150.48;21.42;;;;;;;;;;5092109;28;20044;-61
2022/03/25 05:00:43;;;;;;;117.70;20.95;;;;;;;;;;5091131;28;20151;-61
2022/03/25 05:03:09;;;;;;;63.67;20.80;;;;;;;;;;5092323;28;20157;-61
2022/03/25 05:05:35;;;;;;;73.57;21.55;;;;;;;;;;5090799;28;20116;-60
2022/03/25 05:08:01;;;;;;;90.57;22.85;;;;;;;;;;5090764;28;20051;-61
2022/03/25 05:10:28;;;;;;;195.90;23.83;;;;;;;;;;5090639;28;20063;-61
2022/03/25 05:12:54;;;;;;;127.47;22.25;;;;;;;;;;5091587;28;20040;-61
2022/03/25 05:15:20;;;;;;;100.65;21.92;;;;;;;;;;5091198;28;20044;-61
2022/03/25 05:17:47;;;;;;;77.43;23.73;;;;;;;;;;5091393;28;20048;-61
2022/03/25 05:20:15;;;;;;;75.53;21.73;;;;;;;;;;5091115;28;20432;-61
2022/03/25 05:22:41;;;;;;;42.20;24.60;;;;;;;;;;5090906;28;20169;-61
2022/03/25 05:25:08;;;;;;;81.50;24.17;;;;;;;;;;5090387;28;20493;-61
2022/03/25 05:27:44;;;;;;;54.03;21.50;;;;;;;;;;5089403;28;20039;-60
2022/03/25 05:30:11;;;;;;;39.58;22.67;;;;;;;;;;5090719;28;20040;-61
2022/03/25 05:32:38;;;;;;;56.50;21.10;;;;;;;;;;5090255;28;20526;-60
2022/03/25 05:35:06;;;;;;;52.80;21.88;;;;;;;;;;5090350;28;20039;-61
2022/03/25 05:37:32;;;;;;;45.63;21.60;;;;;;;;;;5089208;28;20047;-61
2022/03/25 05:39:59;;;;;;;33.20;19.65;;;;;;;;;;5090944;28;20032;-61
2022/03/25 05:42:25;;;;;;;28.77;19.15;;;;;;;;;;5089577;28;20498;-61
2022/03/25 05:44:51;;;;;;;27.67;19.90;;;;;;;;;;5091468;28;20490;-61
2022/03/25 05:47:17;;;;;;;29.10;20.83;;;;;;;;;;5090496;28;20036;-61
2022/03/25 05:49:43;;;;;;;30.35;21.63;;;;;;;;;;5091203;28;20062;-61
2022/03/25 05:52:10;;;;;;;29.08;21.08;;;;;;;;;;5088822;28;20118;-61
2022/03/25 05:54:36;;;;;;;35.15;21.65;;;;;;;;;;5090463;28;20458;-61
2022/03/25 05:57:02;;;;;;;29.15;20.15;;;;;;;;;;5090127;28;20479;-61
2022/03/25 05:59:28;;;;;;;29.70;21.48;;;;;;;;;;5089747;28;20044;-61
2022/03/25 06:01:54;;;;;;;32.08;21.00;;;;;;;;;;5090033;28;20093;-61
2022/03/25 06:04:20;;;;;;;32.55;21.73;;;;;;;;;;5090640;28;20096;-61
2022/03/25 06:06:47;;;;;;;27.67;20.15;;;;;;;;;;5089949;28;20050;-61
2022/03/25 06:09:13;;;;;;;27.00;19.75;;;;;;;;;;5090450;28;20040;-61
2022/03/25 06:11:39;;;;;;;26.33;20.10;;;;;;;;;;5089592;28;20048;-61
2022/03/25 06:14:05;;;;;;;27.40;20.45;;;;;;;;;;5090201;28;20040;-61
2022/03/25 06:16:31;;;;;;;28.02;20.42;;;;;;;;;;5090068;28;20043;-61
2022/03/25 06:18:57;;;;;;;26.10;18.75;;;;;;;;;;5089227;28;20051;-61
2022/03/25 06:21:23;;;;;;;26.73;19.92;;;;;;;;;;5090517;28;20838;-61
2022/03/25 06:23:50;;;;;;;24.83;19.33;;;;;;;;;;5089772;28;20036;-61
2022/03/25 06:26:17;;;;;;;24.17;18.98;;;;;;;;;;5090389;28;20036;-61
2022/03/25 06:28:43;;;;;;;24.75;19.35;;;;;;;;;;5089914;28;20036;-61
2022/03/25 06:31:09;;;;;;;23.67;18.25;;;;;;;;;;5089185;28;20056;-61
2022/03/25 06:33:37;;;;;;;24.25;18.77;;;;;;;;;;5088327;28;20037;-61
2022/03/25 06:36:03;;;;;;;27.95;20.27;;;;;;;;;;5089805;28;20071;-61
2022/03/25 06:38:29;;;;;;;28.70;21.38;;;;;;;;;;5089126;28;20044;-60
2022/03/25 06:40:56;;;;;;;27.50;20.80;;;;;;;;;;5090590;28;20914;-61
2022/03/25 06:43:22;;;;;;;28.65;20.95;;;;;;;;;;5089161;28;20405;-62
2022/03/25 06:45:48;;;;;;;30.45;21.88;;;;;;;;;;5088894;28;20395;-61
2022/03/25 06:48:14;;;;;;;31.00;22.02;;;;;;;;;;5088720;28;20097;-61
2022/03/25 06:50:40;;;;;;;35.03;22.73;;;;;;;;;;5089719;28;20043;-61
2022/03/25 06:53:07;;;;;;;35.15;23.23;;;;;;;;;;5089308;28;20459;-61
2022/03/25 06:55:34;;;;;;;35.10;23.25;;;;;;;;;;5089641;28;20538;-61
2022/03/25 06:58:00;;;;;;;30.02;21.90;;;;;;;;;;5089072;28;20523;-61
2022/03/25 07:00:27;;;;;;;33.78;22.90;;;;;;;;;;5089809;28;20101;-62
2022/03/25 07:02:53;;;;;;;42.08;26.05;;;;;;;;;;5087873;28;20040;-60
2022/03/25 07:05:19;;;;;;;43.58;27.70;;;;;;;;;;5089060;28;20470;-60
2022/03/25 07:07:45;;;;;;;32.30;22.98;;;;;;;;;;5088195;28;20105;-62
2022/03/25 07:10:12;;;;;;;34.42;22.98;;;;;;;;;;5090215;28;20043;-63
2022/03/25 07:12:43;;;;;;;30.38;21.98;;;;;;;;;;5087736;28;20120;-61
2022/03/25 07:15:09;;;;;;;36.95;25.10;;;;;;;;;;5089273;28;20036;-64
2022/03/25 07:17:37;;;;;;;35.08;24.13;;;;;;;;;;5086072;28;20086;-62
2022/03/25 07:20:04;;;;;;;39.92;26.23;;;;;;;;;;5089906;28;20096;-62
2022/03/25 07:22:30;;;;;;;40.13;27.00;;;;;;;;;;5089194;28;20047;-61
2022/03/25 07:24:56;;;;;;;37.78;25.25;;;;;;;;;;5089875;28;20028;-61
2022/03/25 07:27:22;;;;;;;46.05;27.52;;;;;;;;;;5088628;28;20070;-62
2022/03/25 07:29:48;;;;;;;53.78;29.55;;;;;;;;;;5089581;28;20116;-62
2022/03/25 07:32:14;;;;;;;56.13;31.90;;;;;;;;;;5089032;28;20060;-61
2022/03/25 07:34:40;;;;;;;51.08;31.40;;;;;;;;;;5088527;28;20039;-61
2022/03/25 07:37:06;;;;;;;53.47;31.38;;;;;;;;;;5089135;28;20164;-62
2022/03/25 07:39:34;;;;;;;62.63;33.10;;;;;;;;;;5088985;28;20040;-61
2022/03/25 07:42:00;;;;;;;57.33;31.38;;;;;;;;;;5089670;28;21987;-61
2022/03/25 07:44:26;;;;;;;55.00;32.20;;;;;;;;;;5088189;28;20402;-61
2022/03/25 07:46:52;;;;;;;56.75;32.38;;;;;;;;;;5087534;28;20028;-61
2022/03/25 07:49:18;;;;;;;56.58;33.30;;;;;;;;;;5087616;28;20050;-61
2022/03/25 07:51:44;;;;;;;51.25;31.05;;;;;;;;;;5083448;28;20040;-62
2022/03/25 07:54:10;;;;;;;50.58;31.02;;;;;;;;;;5089341;28;20044;-62
2022/03/25 07:56:37;;;;;;;52.88;31.23;;;;;;;;;;5089116;28;20047;-62
2022/03/25 07:59:03;;;;;;;52.40;31.73;;;;;;;;;;5074408;28;20105;-62
2022/03/25 08:01:30;;;;;;;46.60;29.33;;;;;;;;;;5089674;28;20058;-61
2022/03/25 08:03:56;;;;;;;50.55;30.20;;;;;;;;;;5093090;28;20042;-61
2022/03/25 08:06:22;;;;;;;50.60;29.67;;;;;;;;;;5092208;28;20040;-62
2022/03/25 08:08:49;;;;;;;49.67;29.63;;;;;;;;;;5093331;28;20487;-61
2022/03/25 08:11:17;;;;;;;49.95;29.83;;;;;;;;;;5083929;28;20414;-62
2022/03/25 08:13:43;;;;;;;44.72;28.35;;;;;;;;;;5092824;28;20047;-61
2022/03/25 08:16:09;;;;;;;44.92;28.13;;;;;;;;;;5092773;28;20744;-61
2022/03/25 08:18:35;;;;;;;45.88;28.20;;;;;;;;;;5092255;28;20531;-61
2022/03/25 08:21:02;;;;;;;47.60;28.95;;;;;;;;;;5089014;28;20040;-61
2022/03/25 08:29:00;;;;;;;47.15;28.67;;;;;;;;;;5010591;28;20049;-62
2022/03/25 08:31:28;;;;;;;49.97;28.27;;;;;;;;;;4993046;28;20050;-62
2022/03/25 08:33:54;;;;;;;42.28;26.27;;;;;;;;;;5009689;28;20645;-62
2022/03/25 08:36:20;;;;;;;41.85;26.33;;;;;;;;;;5009559;28;20125;-62
2022/03/25 08:38:46;;;;;;;44.63;27.60;;;;;;;;;;5009632;28;20128;-63
2022/03/25 08:41:12;;;;;;;44.42;27.65;;;;;;;;;;5007848;28;20088;-62
2022/03/25 08:43:39;;;;;;;48.17;28.38;;;;;;;;;;5008298;28;20129;-61
2022/03/25 08:46:07;;;;;;;42.83;26.77;;;;;;;;;;5010476;28;20069;-63
2022/03/25 08:48:33;;;;;;;42.03;27.75;;;;;;;;;;5009406;28;20121;-63
2022/03/25 08:50:59;;;;;;;41.70;27.10;;;;;;;;;;5009495;28;20054;-61
2022/03/25 08:53:25;;;;;;;47.38;27.45;;;;;;;;;;5009116;28;20046;-62
2022/03/25 08:55:51;;;;;;;46.78;27.50;;;;;;;;;;5009453;28;20116;-63
2022/03/25 08:58:17;;;;;;;43.95;27.05;;;;;;;;;;5007462;28;20045;-63
2022/03/25 09:00:43;;;;;;;43.47;26.30;;;;;;;;;;5010096;28;20041;-63
2022/03/25 09:03:10;;;;;;;42.95;25.08;;;;;;;;;;5044739;28;20047;-63
2022/03/25 09:05:36;;;;;;;41.58;24.90;;;;;;;;;;5087357;28;20145;-62
2022/03/25 09:08:02;;;;;;;43.65;26.42;;;;;;;;;;5092109;28;20044;-63
2022/03/25 09:10:28;;;;;;;43.15;26.42;;;;;;;;;;5087627;28;20056;-62
2022/03/25 09:12:54;;;;;;;45.40;26.85;;;;;;;;;;5091621;28;20051;-62
2022/03/25 09:15:22;;;;;;;40.70;25.73;;;;;;;;;;5091812;28;20383;-61
2022/03/25 09:17:49;;;;;;;43.15;27.67;;;;;;;;;;5090329;28;20119;-62
2022/03/25 09:20:15;;;;;;;42.97;26.02;;;;;;;;;;5087288;28;20746;-61
2022/03/25 09:22:41;;;;;;;42.60;26.52;;;;;;;;;;5091420;28;20036;-61
2022/03/25 09:25:08;;;;;;;41.90;25.05;;;;;;;;;;5091117;28;20479;-62
2022/03/25 09:27:34;;;;;;;44.45;24.52;;;;;;;;;;5091480;28;20040;-64
2022/03/25 09:30:01;;;;;;;40.00;24.42;;;;;;;;;;5090863;28;20109;-62
2022/03/25 09:32:27;;;;;;;41.17;24.42;;;;;;;;;;5090125;28;20043;-62
2022/03/25 09:35:08;;;;;;;42.53;24.90;;;;;;;;;;5091429;28;20032;-62
2022/03/25 09:37:39;;;;;;;38.53;24.33;;;14.60;99.90;;;;;;5090582;28;20071;-61
2022/03/25 09:40:06;;;;;;;38.42;23.42;;;;;;;;;;5089105;28;20032;-63
2022/03/25 09:42:36;;;;;;;36.88;22.23;;;14.80;99.90;;;;;;5086389;28;20036;-62
2022/03/25 09:45:03;;;;;;;42.78;23.27;;;;;;;;;;5091283;28;20400;-63
2022/03/25 09:47:31;;;;;;;37.53;22.10;;;;;;;;;;5089852;28;20126;-62
2022/03/25 09:49:57;;;;;;;33.25;21.63;;;;;;;;;;5091311;28;20044;-61
2022/03/25 09:52:26;;;;;;;38.60;23.20;;;;;;;;;;5089433;28;20178;-63
2022/03/25 09:54:52;;;;;;;39.83;22.25;;;;;;;;;;5090526;28;20131;-61
2022/03/25 09:57:18;;;;;;;34.63;22.20;;;;;;;;;;5090165;28;20028;-62
2022/03/25 09:59:44;;;;;;;36.38;21.50;;;;;;;;;;5091089;28;20062;-61
2022/03/25 10:02:11;;;;;;;37.50;22.55;;;;;;;;;;5089368;28;20491;-63
2022/03/25 10:04:40;;;;;;;38.92;21.38;;;;;;;;;;5090249;28;20043;-61
2022/03/25 10:07:16;;;;;;;32.05;21.30;;;;;;;;;;5088220;28;20036;-62
2022/03/25 10:09:42;;;;;;;35.60;21.13;;;;;;;;;;5089414;28;20406;-62
2022/03/25 10:12:22;;;;;;;36.97;21.23;;;16.50;99.90;;;;;;5090229;28;20133;-63
2022/03/25 10:14:51;;;;;;;34.17;20.80;;;;;;;;;;5090242;28;20406;-63
2022/03/25 10:17:18;;;;;;;34.70;21.88;;;;;;;;;;5090577;28;20122;-63
2022/03/25 10:19:54;;;;;;;38.50;22.70;;;;;;;;;;5090304;28;20490;-63
2022/03/25 10:22:20;;;;;;;37.95;21.05;;;;;;;;;;5090491;28;20043;-63
2022/03/25 10:24:52;;;;;;;29.55;20.83;;;;;;;;;;5089918;28;20040;-63
2022/03/25 10:27:21;;;;;;;36.58;23.05;;;;;;;;;;5090613;28;20444;-62
2022/03/25 10:29:50;;;;;;;38.05;23.02;;;;;;;;;;5089885;28;20044;-62
2022/03/25 10:32:19;;;;;;;36.33;21.90;;;18.50;99.90;;;;;;5090568;28;20427;-63
2022/03/25 10:34:47;;;;;;;41.60;23.35;;;;;;;;;;5090700;28;20036;-63
2022/03/25 10:37:15;;;;;;;34.38;22.17;;;;;;;;;;5090255;28;20126;-63
2022/03/25 10:39:51;;;;;;;34.45;22.90;;;;;;;;;;5090145;28;20586;-64
2022/03/25 10:42:18;;;;;;;35.28;21.63;;;;;;;;;;5090448;28;20108;-63
2022/03/25 10:44:44;;;;;;;36.45;20.65;;;;;;;;;;5089929;28;20047;-63
2022/03/25 10:47:16;;;;;;;30.77;19.98;;;19.20;99.90;;;;;;5090180;28;20089;-63
2022/03/25 10:49:47;;;;;;;32.55;21.17;;;19.40;99.90;;;;;;5090572;28;20044;-63
2022/03/25 10:52:34;;;;;;;30.67;21.38;;;19.90;99.90;;;;;;5090337;28;20089;-62
2022/03/25 10:55:19;;;;;;;33.00;21.00;;;;;;;;;;5090033;28;20036;-63
2022/03/25 10:57:48;;;;;;;34.15;21.23;;;;;;;;;;5090307;28;20406;-61
2022/03/25 11:00:14;;;;;;;35.33;20.92;;;20.20;99.90;;;;;;5088905;28;20036;-63
2022/03/25 11:02:40;;;;;;;37.60;21.45;;;;;;;;;;5088675;28;20085;-64
2022/03/25 11:05:09;;;;;;;33.28;21.08;;;20.70;99.90;;;;;;5089687;28;20032;-62
2022/03/25 11:07:36;;;;;;;31.65;20.98;;;;;;;;;;5090367;28;20047;-62
2022/03/25 11:10:02;;;;;;;33.17;20.98;;;;;;;;;;5089970;28;20060;-63
2022/03/25 11:12:31;;;;;;;32.80;21.60;;;;;;;;;;5089490;28;20044;-65
2022/03/25 11:14:59;;;;;;;32.50;21.70;;;;;;;;;;5089541;28;20036;-63
2022/03/25 11:17:26;;;;;;;34.47;21.98;;;21.40;98.10;;;;;;5088657;28;20040;-62
2022/03/25 11:19:52;;;;;;;32.78;21.45;;;;;;;;;;5090176;28;20078;-62
2022/03/25 11:22:18;;;;;;;37.70;22.45;;;;;;;;;;5089709;28;20063;-62
2022/03/25 11:24:52;;;;;;;31.33;21.25;;;21.80;96.80;;;;;;5090071;28;20036;-62
2022/03/25 11:27:21;;;;;;;34.38;22.15;;;;;;;;;;5089494;28;20064;-63
2022/03/25 11:29:50;;;;;;;30.30;20.45;;;;;;;;;;5088494;28;20086;-64
2022/03/25 11:32:17;;;;;;;33.40;21.10;;;;;;;;;;5089791;28;20402;-62
2022/03/25 11:34:55;;;;;;;34.92;22.02;;;;;;;;;;5089809;28;20047;-62
2022/03/25 11:37:31;;;;;;;34.47;21.20;;;22.30;95.00;;;;;;5092905;28;20051;-63
2022/03/25 11:40:22;;;;;;;34.78;21.20;;;;;;;;;;5093543;28;20032;-65
2022/03/25 11:42:54;;;;;;;36.85;22.50;;;22.60;94.10;;;;;;5093818;28;20047;-62
2022/03/25 11:45:32;;;;;;;32.63;21.63;;;;;;;;;;5093460;28;20048;-62
2022/03/25 11:48:04;;;;;;;32.67;21.63;;;;;;;;;;5087476;28;20388;-62
2022/03/25 11:50:40;;;;;;;34.00;21.38;;;22.70;91.70;;;;;;5092680;28;20034;-62
2022/03/25 11:53:12;;;;;;;32.55;19.75;;;;;;;;;;5092272;28;20082;-63
2022/03/25 11:55:54;;;;;;;32.03;21.10;;;;;;;;;;5090236;28;20032;-64
2022/03/25 11:58:20;;;;;;;;;;;;;;;;;;5091821;28;20059;-63
2022/03/25 12:00:48;;;;;;;33.75;21.38;;;;;;;;;;5091941;28;19920;-63
2022/03/25 12:03:15;;;;;;;32.30;20.85;;;;;;;;;;5092056;28;20040;-63
2022/03/25 12:05:58;;;;;;;33.63;21.92;;;;;;;;;;5093037;28;20035;-63
2022/03/25 12:08:27;;;;;;;34.90;20.17;;;23.00;91.30;;;;;;5089086;28;20126;-62
2022/03/25 12:10:53;;;;;;;32.67;18.38;;;;;;;;;;5092550;28;20058;-64
2022/03/25 12:13:20;;;;;;;29.17;19.30;;;;;;;;;;5092711;28;20414;-64
2022/03/25 12:15:47;;;;;;;30.13;19.88;;;;;;;;;;5092606;28;20050;-63
2022/03/25 12:18:32;;;;;;;27.55;18.17;;;;;;;;;;5091185;28;20040;-63
2022/03/25 12:20:58;;;;;;;30.05;17.45;;;;;;;;;;5089663;28;20104;-62
2022/03/25 12:23:24;;;;;;;27.27;17.60;;;;;;;;;;5091427;28;20040;-63
2022/03/25 12:25:50;;;;;;;29.63;19.08;;;;;;;;;;5090787;28;20097;-62
2022/03/25 12:28:23;;;;;;;27.73;19.10;;;;;;;;;;5091336;28;20097;-64
2022/03/25 12:30:50;;;;;;;29.98;18.33;;;;;;;;;;5091291;28;20101;-63
2022/03/25 12:33:18;;;;;;;26.13;16.95;;;22.60;90.50;;;;;;5089969;28;20131;-63
2022/03/25 12:35:45;;;;;;;27.38;17.65;;;;;;;;;;5091011;28;20119;-62
2022/03/25 12:38:11;;;;;;;31.38;18.92;;;;;;;;;;5092014;28;20462;-62
2022/03/25 12:40:37;;;;;;;27.63;17.58;;;;;;;;;;5091163;28;20114;-62
2022/03/25 12:43:11;;;;;;;27.50;17.17;;;;;;;;;;5091664;28;20044;-64
2022/03/25 12:45:45;;;;;;;28.58;17.48;;;22.60;90.50;;;;;;5090493;28;20122;-64
2022/03/25 12:48:18;;;;;;;25.63;15.65;;;22.20;87.80;;;;;;5089206;28;20499;-62
2022/03/25 12:50:54;;;;;;;27.13;15.75;;;;;;;;;;5106816;28;20043;-63
2022/03/25 12:53:25;;;;;;;36.65;18.52;;;22.30;90.70;;;;;;5091102;28;20047;-63
2022/03/25 12:55:51;;;;;;;29.23;17.30;;;22.40;94.90;;;;;;5089368;28;20127;-62
2022/03/25 12:58:17;;;;;;;23.83;15.98;;;;;;;;;;5091877;28;20545;-62
2022/03/25 13:00:45;;;;;;;29.92;17.27;;;22.50;90.10;;;;;;5090786;28;20129;-64
2022/03/25 13:03:12;;;;;;;21.38;14.30;;;;;;;;;;5090568;28;20036;-63
2022/03/25 13:05:39;;;;;;;23.50;15.02;;;24.70;89.40;;;;;;5089042;28;20039;-61
2022/03/25 13:08:06;;;;;;;22.38;14.65;;;;;;;;;;5087895;28;20419;-63
2022/03/25 13:10:33;;;;;;;26.90;15.23;;;;;;;;;;5089370;28;20062;-62
2022/03/25 13:13:00;;;;;;;21.13;14.48;;;;;;;;;;5090392;28;20052;-63
2022/03/25 13:15:35;;;;;;;26.58;16.33;;;26.40;83.70;;;;;;5088421;28;20056;-63
2022/03/25 13:18:03;;;;;;;27.58;17.55;;;;;;;;;;5091480;28;20080;-62
2022/03/25 13:20:29;;;;;;;25.83;13.80;;;;;;;;;;5090710;28;20052;-63
2022/03/25 13:23:17;;;;;;;25.00;16.27;;;;;;;;;;5090204;28;20140;-62
2022/03/25 13:25:51;;;;;;;29.95;15.40;;;27.90;79.60;;;;;;5091408;28;20437;-62
2022/03/25 13:28:23;;;;;;;22.30;15.10;;;;;;;;;;5102854;28;20113;-63
2022/03/25 13:30:51;;;;;;;24.85;15.32;;;;;;;;;;5089306;28;20046;-64
2022/03/25 13:33:23;;;;;;;20.30;14.15;;;27.00;76.90;;;;;;5090510;28;20044;-62
2022/03/25 13:35:54;;;;;;;21.83;14.57;;;;;;;;;;5090699;28;20040;-62
2022/03/25 13:38:22;;;;;;;25.80;15.95;;;;;;;;;;5091175;28;20505;-62
2022/03/25 13:40:56;;;;;;;22.77;13.40;;;26.30;77.90;;;;;;5089652;28;20074;-63
2022/03/25 13:43:24;;;;;;;20.40;13.50;;;;;;;;;;5090871;28;20135;-63
2022/03/25 13:46:19;;;;;;;21.42;12.20;;;25.70;78.60;;;;;;5090245;28;20044;-63
2022/03/25 13:48:59;;;;;;;21.23;11.55;;;26.00;79.30;;;;;;5091270;28;20054;-65
2022/03/25 13:51:41;;;;;;;22.20;11.27;;;25.30;78.00;;;;;;5087089;28;20084;-66
2022/03/25 13:54:07;;;;;;;15.40;9.23;;;;;;;;;;5091742;28;20064;-62
2022/03/25 13:56:45;;;;;;;15.35;6.85;;;25.20;77.70;;;;;;5091117;28;20047;-62
2022/03/25 13:59:22;;;;;;;14.10;6.20;;;25.00;77.70;;;;;;5090940;28;20059;-63
2022/03/25 14:01:48;;;;;;;13.43;6.78;;;;;;;;;;5091093;28;20036;-63
2022/03/25 14:04:16;;;;;;;14.65;6.88;;;;;;;;;;5091307;28;20109;-63
2022/03/25 14:06:52;;;;;;;14.65;7.47;;;28.30;75.50;;;;;;5091279;28;20036;-63
2022/03/25 14:09:35;;;;;;;17.23;7.47;;;;;;;;;;5088674;28;20487;-62
2022/03/25 14:12:04;;;;;;;14.80;7.70;;;;;;;;;;5090917;28;20052;-63
2022/03/25 14:14:35;;;;;;;14.90;6.55;;;30.70;73.10;;;;;;5090856;28;20056;-64